sensor_id;sensor_type;location;lat;lon;timestamp;P1;durP1;ratioP1;P2;durP2;ratioP2
8540;SDS011;4308;51.294;6.590;2023-12-20T00:02:07;12.83;;;6.37;;
8540;SDS011;4308;51.294;6.590;2023-12-20T00:04:34;11.73;;;6.30;;
8540;SDS011;4308;51.294;6.590;2023-12-20T00:07:02;11.10;;;6.20;;
8540;SDS011;4308;51.294;6.590;2023-12-20T00:09:29;10.43;;;6.13;;
8540;SDS011;4308;51.294;6.590;2023-12-20T00:11:57;16.03;;;7.47;;
8540;SDS011;4308;51.294;6.590;2023-12-20T00:14:24;13.07;;;6.80;;
8540;SDS011;4308;51.294;6.590;2023-12-20T00:16:51;11.13;;;6.90;;
8540;SDS011;4308;51.294;6.590;2023-12-20T00:19:18;12.60;;;6.73;;
8540;SDS011;4308;51.294;6.590;2023-12-20T00:21:46;14.60;;;7.83;;
8540;SDS011;4308;51.294;6.590;2023-12-20T00:24:13;16.83;;;7.30;;
8540;SDS011;4308;51.294;6.590;2023-12-20T00:26:40;15.90;;;7.60;;
8540;SDS011;4308;51.294;6.590;2023-12-20T00:29:08;14.77;;;8.40;;
8540;SDS011;4308;51.294;6.590;2023-12-20T00:31:35;15.37;;;8.80;;
8540;SDS011;4308;51.294;6.590;2023-12-20T00:34:02;17.70;;;9.33;;
8540;SDS011;4308;51.294;6.590;2023-12-20T00:36:30;15.83;;;9.80;;
8540;SDS011;4308;51.294;6.590;2023-12-20T00:38:57;21.43;;;9.83;;
8540;SDS011;4308;51.294;6.590;2023-12-20T00:41:25;18.23;;;10.70;;
8540;SDS011;4308;51.294;6.590;2023-12-20T00:43:52;18.80;;;10.03;;
8540;SDS011;4308;51.294;6.590;2023-12-20T00:46:19;17.27;;;10.23;;
8540;SDS011;4308;51.294;6.590;2023-12-20T00:48:47;15.17;;;9.53;;
8540;SDS011;4308;51.294;6.590;2023-12-20T00:51:14;16.43;;;9.97;;
8540;SDS011;4308;51.294;6.590;2023-12-20T00:53:41;14.73;;;10.57;;
8540;SDS011;4308;51.294;6.590;2023-12-20T00:56:08;19.70;;;12.03;;
8540;SDS011;4308;51.294;6.590;2023-12-20T00:58:36;23.47;;;12.40;;
8540;SDS011;4308;51.294;6.590;2023-12-20T01:01:03;24.07;;;14.30;;
8540;SDS011;4308;51.294;6.590;2023-12-20T01:03:31;27.17;;;14.10;;
8540;SDS011;4308;51.294;6.590;2023-12-20T01:05:58;20.40;;;13.57;;
8540;SDS011;4308;51.294;6.590;2023-12-20T01:08:26;22.00;;;14.67;;
8540;SDS011;4308;51.294;6.590;2023-12-20T01:10:53;30.77;;;15.30;;
8540;SDS011;4308;51.294;6.590;2023-12-20T01:13:20;25.43;;;15.83;;
8540;SDS011;4308;51.294;6.590;2023-12-20T01:15:48;21.53;;;14.90;;
8540;SDS011;4308;51.294;6.590;2023-12-20T01:18:18;23.33;;;14.40;;
8540;SDS011;4308;51.294;6.590;2023-12-20T01:20:45;21.20;;;14.23;;
8540;SDS011;4308;51.294;6.590;2023-12-20T01:23:13;22.43;;;14.53;;
8540;SDS011;4308;51.294;6.590;2023-12-20T01:25:40;25.67;;;12.73;;
8540;SDS011;4308;51.294;6.590;2023-12-20T01:28:07;25.03;;;13.03;;
8540;SDS011;4308;51.294;6.590;2023-12-20T01:30:35;19.83;;;12.80;;
8540;SDS011;4308;51.294;6.590;2023-12-20T01:33:02;22.33;;;13.07;;
8540;SDS011;4308;51.294;6.590;2023-12-20T01:35:30;22.90;;;11.60;;
8540;SDS011;4308;51.294;6.590;2023-12-20T01:37:57;21.70;;;11.30;;
8540;SDS011;4308;51.294;6.590;2023-12-20T01:40:25;18.93;;;10.70;;
8540;SDS011;4308;51.294;6.590;2023-12-20T01:43:02;20.40;;;11.20;;
8540;SDS011;4308;51.294;6.590;2023-12-20T01:45:33;23.87;;;10.03;;
8540;SDS011;4308;51.294;6.590;2023-12-20T01:48:01;27.43;;;10.47;;
8540;SDS011;4308;51.294;6.590;2023-12-20T01:50:30;30.10;;;10.63;;
8540;SDS011;4308;51.294;6.590;2023-12-20T01:52:59;21.00;;;10.20;;
8540;SDS011;4308;51.294;6.590;2023-12-20T01:55:29;21.70;;;10.83;;
8540;SDS011;4308;51.294;6.590;2023-12-20T01:57:59;25.93;;;10.63;;
8540;SDS011;4308;51.294;6.590;2023-12-20T02:00:27;19.97;;;10.63;;
8540;SDS011;4308;51.294;6.590;2023-12-20T02:02:56;24.00;;;11.00;;
8540;SDS011;4308;51.294;6.590;2023-12-20T02:05:28;28.37;;;10.70;;
8540;SDS011;4308;51.294;6.590;2023-12-20T02:07:57;21.77;;;9.97;;
8540;SDS011;4308;51.294;6.590;2023-12-20T02:10:24;20.70;;;10.37;;
8540;SDS011;4308;51.294;6.590;2023-12-20T02:12:52;21.37;;;8.27;;
8540;SDS011;4308;51.294;6.590;2023-12-20T02:15:20;23.13;;;9.53;;
8540;SDS011;4308;51.294;6.590;2023-12-20T02:17:47;23.90;;;7.93;;
8540;SDS011;4308;51.294;6.590;2023-12-20T02:20:15;20.17;;;8.47;;
8540;SDS011;4308;51.294;6.590;2023-12-20T02:22:43;23.30;;;9.10;;
8540;SDS011;4308;51.294;6.590;2023-12-20T02:25:10;25.40;;;8.20;;
8540;SDS011;4308;51.294;6.590;2023-12-20T02:27:38;20.80;;;8.43;;
8540;SDS011;4308;51.294;6.590;2023-12-20T02:30:06;16.80;;;8.30;;
8540;SDS011;4308;51.294;6.590;2023-12-20T02:32:34;23.63;;;8.03;;
8540;SDS011;4308;51.294;6.590;2023-12-20T02:35:01;23.57;;;7.47;;
8540;SDS011;4308;51.294;6.590;2023-12-20T02:37:28;19.30;;;6.30;;
8540;SDS011;4308;51.294;6.590;2023-12-20T02:39:56;18.60;;;6.20;;
8540;SDS011;4308;51.294;6.590;2023-12-20T02:42:23;18.80;;;5.93;;
8540;SDS011;4308;51.294;6.590;2023-12-20T02:44:50;15.03;;;5.00;;
8540;SDS011;4308;51.294;6.590;2023-12-20T02:47:18;14.23;;;5.37;;
8540;SDS011;4308;51.294;6.590;2023-12-20T02:49:45;15.47;;;4.97;;
8540;SDS011;4308;51.294;6.590;2023-12-20T02:52:12;26.33;;;5.30;;
8540;SDS011;4308;51.294;6.590;2023-12-20T02:54:40;15.67;;;4.37;;
8540;SDS011;4308;51.294;6.590;2023-12-20T02:57:07;13.53;;;4.50;;
8540;SDS011;4308;51.294;6.590;2023-12-20T02:59:34;11.73;;;3.90;;
8540;SDS011;4308;51.294;6.590;2023-12-20T03:02:02;15.53;;;5.07;;
8540;SDS011;4308;51.294;6.590;2023-12-20T03:04:29;18.97;;;4.60;;
8540;SDS011;4308;51.294;6.590;2023-12-20T03:06:57;19.50;;;4.27;;
8540;SDS011;4308;51.294;6.590;2023-12-20T03:09:24;18.20;;;4.40;;
8540;SDS011;4308;51.294;6.590;2023-12-20T03:11:51;18.97;;;4.23;;
8540;SDS011;4308;51.294;6.590;2023-12-20T03:14:19;14.20;;;4.00;;
8540;SDS011;4308;51.294;6.590;2023-12-20T03:16:49;14.97;;;4.03;;
8540;SDS011;4308;51.294;6.590;2023-12-20T03:19:17;16.23;;;3.87;;
8540;SDS011;4308;51.294;6.590;2023-12-20T03:21:45;19.47;;;4.23;;
8540;SDS011;4308;51.294;6.590;2023-12-20T03:24:12;15.90;;;4.20;;
8540;SDS011;4308;51.294;6.590;2023-12-20T03:26:40;20.83;;;4.17;;
8540;SDS011;4308;51.294;6.590;2023-12-20T03:29:07;17.60;;;4.30;;
8540;SDS011;4308;51.294;6.590;2023-12-20T03:31:34;11.13;;;3.93;;
8540;SDS011;4308;51.294;6.590;2023-12-20T03:34:02;17.67;;;4.17;;
8540;SDS011;4308;51.294;6.590;2023-12-20T03:36:29;18.83;;;4.57;;
8540;SDS011;4308;51.294;6.590;2023-12-20T03:38:56;23.30;;;5.13;;
8540;SDS011;4308;51.294;6.590;2023-12-20T03:41:24;13.63;;;4.10;;
8540;SDS011;4308;51.294;6.590;2023-12-20T03:43:52;14.63;;;3.90;;
8540;SDS011;4308;51.294;6.590;2023-12-20T03:46:19;13.83;;;3.90;;
8540;SDS011;4308;51.294;6.590;2023-12-20T03:48:47;17.00;;;4.30;;
8540;SDS011;4308;51.294;6.590;2023-12-20T03:51:14;17.07;;;3.93;;
8540;SDS011;4308;51.294;6.590;2023-12-20T03:53:41;19.57;;;4.27;;
8540;SDS011;4308;51.294;6.590;2023-12-20T03:56:09;18.83;;;4.60;;
8540;SDS011;4308;51.294;6.590;2023-12-20T03:58:36;10.47;;;4.27;;
8540;SDS011;4308;51.294;6.590;2023-12-20T04:01:03;22.47;;;5.37;;
8540;SDS011;4308;51.294;6.590;2023-12-20T04:03:36;18.80;;;4.30;;
8540;SDS011;4308;51.294;6.590;2023-12-20T04:06:04;21.37;;;5.23;;
8540;SDS011;4308;51.294;6.590;2023-12-20T04:08:31;23.33;;;5.63;;
8540;SDS011;4308;51.294;6.590;2023-12-20T04:10:59;29.33;;;6.33;;
8540;SDS011;4308;51.294;6.590;2023-12-20T04:13:26;17.80;;;5.77;;
8540;SDS011;4308;51.294;6.590;2023-12-20T04:15:53;16.10;;;6.03;;
8540;SDS011;4308;51.294;6.590;2023-12-20T04:18:21;19.07;;;5.63;;
8540;SDS011;4308;51.294;6.590;2023-12-20T04:20:48;21.73;;;6.57;;
8540;SDS011;4308;51.294;6.590;2023-12-20T04:23:16;19.43;;;5.90;;
8540;SDS011;4308;51.294;6.590;2023-12-20T04:25:43;17.47;;;6.27;;
8540;SDS011;4308;51.294;6.590;2023-12-20T04:28:10;23.47;;;6.57;;
8540;SDS011;4308;51.294;6.590;2023-12-20T04:30:37;21.40;;;7.80;;
8540;SDS011;4308;51.294;6.590;2023-12-20T04:33:05;21.43;;;6.97;;
8540;SDS011;4308;51.294;6.590;2023-12-20T04:35:32;21.70;;;7.27;;
8540;SDS011;4308;51.294;6.590;2023-12-20T04:37:59;20.13;;;8.73;;
8540;SDS011;4308;51.294;6.590;2023-12-20T04:40:27;17.87;;;8.23;;
8540;SDS011;4308;51.294;6.590;2023-12-20T04:42:54;20.07;;;8.60;;
8540;SDS011;4308;51.294;6.590;2023-12-20T04:45:21;24.07;;;9.17;;
8540;SDS011;4308;51.294;6.590;2023-12-20T04:47:49;19.67;;;9.10;;
8540;SDS011;4308;51.294;6.590;2023-12-20T04:50:18;26.77;;;8.80;;
8540;SDS011;4308;51.294;6.590;2023-12-20T04:52:45;19.43;;;8.77;;
8540;SDS011;4308;51.294;6.590;2023-12-20T04:55:12;20.20;;;8.43;;
8540;SDS011;4308;51.294;6.590;2023-12-20T04:57:40;24.37;;;8.23;;
8540;SDS011;4308;51.294;6.590;2023-12-20T05:00:07;23.13;;;7.77;;
8540;SDS011;4308;51.294;6.590;2023-12-20T05:02:35;24.87;;;9.43;;
8540;SDS011;4308;51.294;6.590;2023-12-20T05:05:03;24.73;;;8.87;;
8540;SDS011;4308;51.294;6.590;2023-12-20T05:07:31;20.43;;;7.80;;
8540;SDS011;4308;51.294;6.590;2023-12-20T05:10:01;19.50;;;7.70;;
8540;SDS011;4308;51.294;6.590;2023-12-20T05:12:30;18.90;;;8.53;;
8540;SDS011;4308;51.294;6.590;2023-12-20T05:14:57;17.20;;;7.30;;
8540;SDS011;4308;51.294;6.590;2023-12-20T05:17:25;21.60;;;6.80;;
8540;SDS011;4308;51.294;6.590;2023-12-20T05:19:52;18.87;;;7.40;;
8540;SDS011;4308;51.294;6.590;2023-12-20T05:22:20;19.60;;;7.00;;
8540;SDS011;4308;51.294;6.590;2023-12-20T05:24:47;22.40;;;7.70;;
8540;SDS011;4308;51.294;6.590;2023-12-20T05:27:14;16.23;;;7.77;;
8540;SDS011;4308;51.294;6.590;2023-12-20T05:29:42;17.57;;;7.63;;
8540;SDS011;4308;51.294;6.590;2023-12-20T05:32:09;28.50;;;7.93;;
8540;SDS011;4308;51.294;6.590;2023-12-20T05:34:37;21.30;;;7.83;;
8540;SDS011;4308;51.294;6.590;2023-12-20T05:37:04;21.97;;;8.20;;
8540;SDS011;4308;51.294;6.590;2023-12-20T05:39:31;25.97;;;7.77;;
8540;SDS011;4308;51.294;6.590;2023-12-20T05:41:59;16.33;;;7.20;;
8540;SDS011;4308;51.294;6.590;2023-12-20T05:44:26;17.17;;;6.87;;
8540;SDS011;4308;51.294;6.590;2023-12-20T05:46:53;25.70;;;7.97;;
8540;SDS011;4308;51.294;6.590;2023-12-20T05:49:21;23.67;;;6.60;;
8540;SDS011;4308;51.294;6.590;2023-12-20T05:51:48;16.47;;;7.03;;
8540;SDS011;4308;51.294;6.590;2023-12-20T05:54:24;24.90;;;7.33;;
8540;SDS011;4308;51.294;6.590;2023-12-20T05:56:52;18.77;;;7.33;;
8540;SDS011;4308;51.294;6.590;2023-12-20T05:59:19;22.57;;;7.07;;
8540;SDS011;4308;51.294;6.590;2023-12-20T06:01:47;18.27;;;6.57;;
8540;SDS011;4308;51.294;6.590;2023-12-20T06:04:14;23.30;;;6.97;;
8540;SDS011;4308;51.294;6.590;2023-12-20T06:06:42;20.17;;;6.83;;
8540;SDS011;4308;51.294;6.590;2023-12-20T06:09:10;22.23;;;7.23;;
8540;SDS011;4308;51.294;6.590;2023-12-20T06:11:38;15.30;;;6.30;;
8540;SDS011;4308;51.294;6.590;2023-12-20T06:14:05;17.97;;;6.40;;
8540;SDS011;4308;51.294;6.590;2023-12-20T06:16:33;33.37;;;8.33;;
8540;SDS011;4308;51.294;6.590;2023-12-20T06:19:00;25.53;;;7.47;;
8540;SDS011;4308;51.294;6.590;2023-12-20T06:21:28;18.17;;;7.07;;
8540;SDS011;4308;51.294;6.590;2023-12-20T06:23:55;18.80;;;6.67;;
8540;SDS011;4308;51.294;6.590;2023-12-20T06:26:22;25.70;;;6.57;;
8540;SDS011;4308;51.294;6.590;2023-12-20T06:28:49;24.90;;;6.53;;
8540;SDS011;4308;51.294;6.590;2023-12-20T06:31:17;21.10;;;6.37;;
8540;SDS011;4308;51.294;6.590;2023-12-20T06:33:44;17.43;;;5.53;;
8540;SDS011;4308;51.294;6.590;2023-12-20T06:36:12;25.80;;;6.57;;
8540;SDS011;4308;51.294;6.590;2023-12-20T06:38:40;26.30;;;6.60;;
8540;SDS011;4308;51.294;6.590;2023-12-20T06:41:07;21.00;;;6.97;;
8540;SDS011;4308;51.294;6.590;2023-12-20T06:43:34;16.97;;;6.40;;
8540;SDS011;4308;51.294;6.590;2023-12-20T06:46:15;21.37;;;6.80;;
8540;SDS011;4308;51.294;6.590;2023-12-20T06:48:43;22.60;;;7.07;;
8540;SDS011;4308;51.294;6.590;2023-12-20T06:51:16;16.10;;;6.70;;
8540;SDS011;4308;51.294;6.590;2023-12-20T06:53:44;21.23;;;6.50;;
8540;SDS011;4308;51.294;6.590;2023-12-20T06:56:11;14.43;;;5.97;;
8540;SDS011;4308;51.294;6.590;2023-12-20T06:58:42;19.80;;;6.77;;
8540;SDS011;4308;51.294;6.590;2023-12-20T07:01:13;17.87;;;6.17;;
8540;SDS011;4308;51.294;6.590;2023-12-20T07:03:44;25.33;;;6.73;;
8540;SDS011;4308;51.294;6.590;2023-12-20T07:06:11;24.10;;;6.83;;
8540;SDS011;4308;51.294;6.590;2023-12-20T07:08:40;16.17;;;6.37;;
8540;SDS011;4308;51.294;6.590;2023-12-20T07:11:07;24.73;;;7.07;;
8540;SDS011;4308;51.294;6.590;2023-12-20T07:13:34;20.47;;;6.60;;
8540;SDS011;4308;51.294;6.590;2023-12-20T07:16:02;19.70;;;7.00;;
8540;SDS011;4308;51.294;6.590;2023-12-20T07:18:29;19.80;;;6.30;;
8540;SDS011;4308;51.294;6.590;2023-12-20T07:20:57;24.10;;;6.63;;
8540;SDS011;4308;51.294;6.590;2023-12-20T07:23:24;22.67;;;6.37;;
8540;SDS011;4308;51.294;6.590;2023-12-20T07:25:51;20.13;;;7.27;;
8540;SDS011;4308;51.294;6.590;2023-12-20T07:28:19;21.23;;;6.67;;
8540;SDS011;4308;51.294;6.590;2023-12-20T07:30:46;19.13;;;6.27;;
8540;SDS011;4308;51.294;6.590;2023-12-20T07:33:14;17.93;;;7.03;;
8540;SDS011;4308;51.294;6.590;2023-12-20T07:35:41;21.93;;;6.93;;
8540;SDS011;4308;51.294;6.590;2023-12-20T07:38:08;21.63;;;7.23;;
8540;SDS011;4308;51.294;6.590;2023-12-20T07:40:36;18.90;;;6.70;;
8540;SDS011;4308;51.294;6.590;2023-12-20T07:43:03;23.83;;;8.57;;
8540;SDS011;4308;51.294;6.590;2023-12-20T07:45:30;26.10;;;7.40;;
8540;SDS011;4308;51.294;6.590;2023-12-20T07:47:58;21.37;;;7.20;;
8540;SDS011;4308;51.294;6.590;2023-12-20T07:50:25;22.73;;;8.73;;
8540;SDS011;4308;51.294;6.590;2023-12-20T07:52:52;24.10;;;7.70;;
8540;SDS011;4308;51.294;6.590;2023-12-20T07:55:20;17.57;;;7.47;;
8540;SDS011;4308;51.294;6.590;2023-12-20T07:57:47;23.60;;;7.83;;
8540;SDS011;4308;51.294;6.590;2023-12-20T08:00:15;23.47;;;7.47;;
8540;SDS011;4308;51.294;6.590;2023-12-20T08:02:42;22.43;;;7.00;;
8540;SDS011;4308;51.294;6.590;2023-12-20T08:05:10;20.87;;;7.70;;
8540;SDS011;4308;51.294;6.590;2023-12-20T08:07:37;21.17;;;7.23;;
8540;SDS011;4308;51.294;6.590;2023-12-20T08:10:05;24.23;;;7.40;;
8540;SDS011;4308;51.294;6.590;2023-12-20T08:12:33;23.20;;;7.60;;
8540;SDS011;4308;51.294;6.590;2023-12-20T08:15:00;20.33;;;6.67;;
8540;SDS011;4308;51.294;6.590;2023-12-20T08:17:28;17.77;;;6.00;;
8540;SDS011;4308;51.294;6.590;2023-12-20T08:19:56;20.70;;;7.13;;
8540;SDS011;4308;51.294;6.590;2023-12-20T08:22:23;17.53;;;6.70;;
8540;SDS011;4308;51.294;6.590;2023-12-20T08:24:50;18.63;;;6.30;;
8540;SDS011;4308;51.294;6.590;2023-12-20T08:27:18;25.50;;;6.03;;
8540;SDS011;4308;51.294;6.590;2023-12-20T08:29:45;16.27;;;6.57;;
8540;SDS011;4308;51.294;6.590;2023-12-20T08:32:12;19.37;;;6.17;;
8540;SDS011;4308;51.294;6.590;2023-12-20T08:34:40;19.87;;;6.07;;
8540;SDS011;4308;51.294;6.590;2023-12-20T08:37:07;18.00;;;7.10;;
8540;SDS011;4308;51.294;6.590;2023-12-20T08:39:35;14.27;;;6.50;;
8540;SDS011;4308;51.294;6.590;2023-12-20T08:42:04;19.17;;;5.60;;
8540;SDS011;4308;51.294;6.590;2023-12-20T08:44:31;18.43;;;6.23;;
8540;SDS011;4308;51.294;6.590;2023-12-20T08:46:59;17.50;;;6.13;;
8540;SDS011;4308;51.294;6.590;2023-12-20T08:49:26;16.07;;;5.57;;
8540;SDS011;4308;51.294;6.590;2023-12-20T08:51:54;17.27;;;5.33;;
8540;SDS011;4308;51.294;6.590;2023-12-20T08:54:21;17.63;;;6.03;;
8540;SDS011;4308;51.294;6.590;2023-12-20T08:56:48;18.00;;;5.73;;
8540;SDS011;4308;51.294;6.590;2023-12-20T08:59:15;19.67;;;6.10;;
8540;SDS011;4308;51.294;6.590;2023-12-20T09:01:43;16.77;;;4.93;;
8540;SDS011;4308;51.294;6.590;2023-12-20T09:04:11;16.67;;;4.87;;
8540;SDS011;4308;51.294;6.590;2023-12-20T09:06:39;20.23;;;5.23;;
8540;SDS011;4308;51.294;6.590;2023-12-20T09:09:06;13.23;;;4.30;;
8540;SDS011;4308;51.294;6.590;2023-12-20T09:11:34;20.00;;;4.73;;
8540;SDS011;4308;51.294;6.590;2023-12-20T09:14:01;16.80;;;4.70;;
8540;SDS011;4308;51.294;6.590;2023-12-20T09:16:29;22.53;;;4.53;;
8540;SDS011;4308;51.294;6.590;2023-12-20T09:18:57;18.13;;;5.73;;
8540;SDS011;4308;51.294;6.590;2023-12-20T09:21:25;16.93;;;5.30;;
8540;SDS011;4308;51.294;6.590;2023-12-20T09:23:52;22.17;;;5.20;;
8540;SDS011;4308;51.294;6.590;2023-12-20T09:26:20;17.10;;;4.80;;
8540;SDS011;4308;51.294;6.590;2023-12-20T09:28:48;23.57;;;4.93;;
8540;SDS011;4308;51.294;6.590;2023-12-20T09:31:15;18.73;;;5.03;;
8540;SDS011;4308;51.294;6.590;2023-12-20T09:33:43;15.23;;;4.57;;
8540;SDS011;4308;51.294;6.590;2023-12-20T09:36:11;13.63;;;4.13;;
8540;SDS011;4308;51.294;6.590;2023-12-20T09:38:39;18.13;;;5.33;;
8540;SDS011;4308;51.294;6.590;2023-12-20T09:41:07;21.27;;;4.93;;
8540;SDS011;4308;51.294;6.590;2023-12-20T09:43:37;15.77;;;4.33;;
8540;SDS011;4308;51.294;6.590;2023-12-20T09:46:05;19.97;;;4.67;;
8540;SDS011;4308;51.294;6.590;2023-12-20T09:48:33;17.53;;;4.47;;
8540;SDS011;4308;51.294;6.590;2023-12-20T09:51:02;16.40;;;4.40;;
8540;SDS011;4308;51.294;6.590;2023-12-20T09:53:29;16.03;;;4.57;;
8540;SDS011;4308;51.294;6.590;2023-12-20T09:56:00;15.53;;;4.50;;
8540;SDS011;4308;51.294;6.590;2023-12-20T09:58:29;17.33;;;4.60;;
8540;SDS011;4308;51.294;6.590;2023-12-20T10:00:57;18.23;;;5.07;;
8540;SDS011;4308;51.294;6.590;2023-12-20T10:03:25;16.60;;;4.50;;
8540;SDS011;4308;51.294;6.590;2023-12-20T10:05:54;16.57;;;4.70;;
8540;SDS011;4308;51.294;6.590;2023-12-20T10:08:22;18.87;;;4.57;;
8540;SDS011;4308;51.294;6.590;2023-12-20T10:10:51;18.97;;;5.53;;
8540;SDS011;4308;51.294;6.590;2023-12-20T10:13:19;15.57;;;4.63;;
8540;SDS011;4308;51.294;6.590;2023-12-20T10:15:46;13.97;;;4.57;;
8540;SDS011;4308;51.294;6.590;2023-12-20T10:18:14;17.73;;;4.80;;
8540;SDS011;4308;51.294;6.590;2023-12-20T10:20:42;16.43;;;4.33;;
8540;SDS011;4308;51.294;6.590;2023-12-20T10:23:10;17.43;;;4.80;;
8540;SDS011;4308;51.294;6.590;2023-12-20T10:25:38;17.53;;;5.20;;
8540;SDS011;4308;51.294;6.590;2023-12-20T10:28:09;15.73;;;4.80;;
8540;SDS011;4308;51.294;6.590;2023-12-20T10:30:38;23.50;;;5.20;;
8540;SDS011;4308;51.294;6.590;2023-12-20T10:33:06;19.03;;;4.83;;
8540;SDS011;4308;51.294;6.590;2023-12-20T10:35:34;19.70;;;4.67;;
8540;SDS011;4308;51.294;6.590;2023-12-20T10:38:03;17.47;;;4.30;;
8540;SDS011;4308;51.294;6.590;2023-12-20T10:40:32;15.67;;;4.23;;
8540;SDS011;4308;51.294;6.590;2023-12-20T10:43:02;16.30;;;4.63;;
8540;SDS011;4308;51.294;6.590;2023-12-20T10:45:30;15.03;;;4.17;;
8540;SDS011;4308;51.294;6.590;2023-12-20T10:47:58;14.63;;;4.13;;
8540;SDS011;4308;51.294;6.590;2023-12-20T10:50:26;14.37;;;4.13;;
8540;SDS011;4308;51.294;6.590;2023-12-20T10:52:54;22.57;;;5.07;;
8540;SDS011;4308;51.294;6.590;2023-12-20T10:55:23;18.43;;;4.27;;
8540;SDS011;4308;51.294;6.590;2023-12-20T10:57:51;18.00;;;4.50;;
8540;SDS011;4308;51.294;6.590;2023-12-20T11:00:19;21.73;;;4.77;;
8540;SDS011;4308;51.294;6.590;2023-12-20T11:02:49;18.47;;;4.73;;
8540;SDS011;4308;51.294;6.590;2023-12-20T11:07:58;12.97;;;4.63;;
8540;SDS011;4308;51.294;6.590;2023-12-20T11:10:31;16.43;;;4.43;;
8540;SDS011;4308;51.294;6.590;2023-12-20T11:13:06;17.40;;;5.23;;
8540;SDS011;4308;51.294;6.590;2023-12-20T11:15:44;18.60;;;4.70;;
8540;SDS011;4308;51.294;6.590;2023-12-20T11:18:11;14.00;;;4.70;;
8540;SDS011;4308;51.294;6.590;2023-12-20T11:20:40;13.27;;;4.83;;
8540;SDS011;4308;51.294;6.590;2023-12-20T11:23:09;15.70;;;4.63;;
8540;SDS011;4308;51.294;6.590;2023-12-20T11:25:51;17.80;;;5.03;;
8540;SDS011;4308;51.294;6.590;2023-12-20T11:28:21;17.37;;;4.40;;
8540;SDS011;4308;51.294;6.590;2023-12-20T11:30:54;20.93;;;4.93;;
8540;SDS011;4308;51.294;6.590;2023-12-20T11:33:23;15.07;;;4.23;;
8540;SDS011;4308;51.294;6.590;2023-12-20T11:35:56;16.00;;;4.60;;
8540;SDS011;4308;51.294;6.590;2023-12-20T11:38:25;20.57;;;4.77;;
8540;SDS011;4308;51.294;6.590;2023-12-20T11:40:53;13.93;;;4.90;;
8540;SDS011;4308;51.294;6.590;2023-12-20T11:46:08;14.00;;;4.30;;
8540;SDS011;4308;51.294;6.590;2023-12-20T11:48:39;14.17;;;4.43;;
8540;SDS011;4308;51.294;6.590;2023-12-20T11:51:13;13.83;;;4.37;;
8540;SDS011;4308;51.294;6.590;2023-12-20T11:53:41;14.70;;;4.23;;
8540;SDS011;4308;51.294;6.590;2023-12-20T11:56:08;13.13;;;4.87;;
8540;SDS011;4308;51.294;6.590;2023-12-20T11:58:37;14.13;;;4.67;;
8540;SDS011;4308;51.294;6.590;2023-12-20T12:01:04;13.30;;;4.20;;
8540;SDS011;4308;51.294;6.590;2023-12-20T12:03:32;14.30;;;3.73;;
8540;SDS011;4308;51.294;6.590;2023-12-20T12:05:59;14.97;;;4.83;;
8540;SDS011;4308;51.294;6.590;2023-12-20T12:08:28;15.40;;;5.07;;
8540;SDS011;4308;51.294;6.590;2023-12-20T12:10:55;21.50;;;5.07;;
8540;SDS011;4308;51.294;6.590;2023-12-20T12:13:23;12.50;;;4.33;;
8540;SDS011;4308;51.294;6.590;2023-12-20T12:15:50;13.40;;;5.47;;
8540;SDS011;4308;51.294;6.590;2023-12-20T12:18:18;14.70;;;4.83;;
8540;SDS011;4308;51.294;6.590;2023-12-20T12:20:45;13.63;;;4.97;;
8540;SDS011;4308;51.294;6.590;2023-12-20T12:23:13;14.80;;;4.50;;
8540;SDS011;4308;51.294;6.590;2023-12-20T12:25:40;15.97;;;5.13;;
8540;SDS011;4308;51.294;6.590;2023-12-20T12:28:10;16.97;;;5.50;;
8540;SDS011;4308;51.294;6.590;2023-12-20T12:30:37;11.43;;;4.47;;
8540;SDS011;4308;51.294;6.590;2023-12-20T12:33:15;17.80;;;4.50;;
8540;SDS011;4308;51.294;6.590;2023-12-20T12:35:44;10.50;;;4.40;;
8540;SDS011;4308;51.294;6.590;2023-12-20T12:38:11;12.63;;;5.00;;
8540;SDS011;4308;51.294;6.590;2023-12-20T12:40:39;15.40;;;4.83;;
8540;SDS011;4308;51.294;6.590;2023-12-20T12:43:06;16.73;;;5.33;;
8540;SDS011;4308;51.294;6.590;2023-12-20T12:45:34;16.23;;;5.30;;
8540;SDS011;4308;51.294;6.590;2023-12-20T12:48:01;14.50;;;4.73;;
8540;SDS011;4308;51.294;6.590;2023-12-20T12:50:30;18.13;;;5.13;;
8540;SDS011;4308;51.294;6.590;2023-12-20T12:52:57;19.03;;;5.70;;
8540;SDS011;4308;51.294;6.590;2023-12-20T12:55:27;19.43;;;5.23;;
8540;SDS011;4308;51.294;6.590;2023-12-20T12:57:55;21.07;;;5.53;;
8540;SDS011;4308;51.294;6.590;2023-12-20T13:00:23;12.27;;;5.73;;
8540;SDS011;4308;51.294;6.590;2023-12-20T13:02:50;18.57;;;5.73;;
8540;SDS011;4308;51.294;6.590;2023-12-20T13:05:17;16.03;;;6.00;;
8540;SDS011;4308;51.294;6.590;2023-12-20T13:07:45;18.27;;;5.97;;
8540;SDS011;4308;51.294;6.590;2023-12-20T13:10:13;15.13;;;6.03;;
8540;SDS011;4308;51.294;6.590;2023-12-20T13:12:41;16.60;;;6.20;;
8540;SDS011;4308;51.294;6.590;2023-12-20T13:15:08;21.80;;;6.50;;
8540;SDS011;4308;51.294;6.590;2023-12-20T13:17:36;13.50;;;6.27;;
8540;SDS011;4308;51.294;6.590;2023-12-20T13:20:03;18.97;;;6.63;;
8540;SDS011;4308;51.294;6.590;2023-12-20T13:22:31;19.93;;;6.23;;
8540;SDS011;4308;51.294;6.590;2023-12-20T13:24:59;22.20;;;6.03;;
8540;SDS011;4308;51.294;6.590;2023-12-20T13:27:26;14.00;;;6.50;;
8540;SDS011;4308;51.294;6.590;2023-12-20T13:29:54;20.80;;;6.97;;
8540;SDS011;4308;51.294;6.590;2023-12-20T13:32:21;17.40;;;6.93;;
8540;SDS011;4308;51.294;6.590;2023-12-20T13:34:49;19.27;;;7.17;;
8540;SDS011;4308;51.294;6.590;2023-12-20T13:37:16;24.00;;;7.93;;
8540;SDS011;4308;51.294;6.590;2023-12-20T13:39:44;23.07;;;8.70;;
8540;SDS011;4308;51.294;6.590;2023-12-20T13:42:11;18.60;;;7.57;;
8540;SDS011;4308;51.294;6.590;2023-12-20T13:44:38;21.63;;;7.67;;
8540;SDS011;4308;51.294;6.590;2023-12-20T13:47:06;18.33;;;6.93;;
8540;SDS011;4308;51.294;6.590;2023-12-20T13:49:33;16.37;;;6.60;;
8540;SDS011;4308;51.294;6.590;2023-12-20T13:52:00;19.03;;;7.37;;
8540;SDS011;4308;51.294;6.590;2023-12-20T13:54:28;20.47;;;6.93;;
8540;SDS011;4308;51.294;6.590;2023-12-20T13:56:55;19.02;;;7.55;;
8540;SDS011;4308;51.294;6.590;2023-12-20T13:59:38;18.73;;;7.93;;
8540;SDS011;4308;51.294;6.590;2023-12-20T14:02:05;16.37;;;6.53;;
8540;SDS011;4308;51.294;6.590;2023-12-20T14:04:33;18.53;;;6.67;;
8540;SDS011;4308;51.294;6.590;2023-12-20T14:07:09;15.20;;;7.20;;
8540;SDS011;4308;51.294;6.590;2023-12-20T14:09:39;16.87;;;6.50;;
8540;SDS011;4308;51.294;6.590;2023-12-20T14:12:07;20.47;;;6.23;;
8540;SDS011;4308;51.294;6.590;2023-12-20T14:14:35;20.63;;;6.80;;
8540;SDS011;4308;51.294;6.590;2023-12-20T14:17:02;17.47;;;6.37;;
8540;SDS011;4308;51.294;6.590;2023-12-20T14:19:30;13.43;;;6.13;;
8540;SDS011;4308;51.294;6.590;2023-12-20T14:21:57;16.10;;;6.20;;
8540;SDS011;4308;51.294;6.590;2023-12-20T14:24:25;18.13;;;6.57;;
8540;SDS011;4308;51.294;6.590;2023-12-20T14:26:52;21.23;;;6.90;;
8540;SDS011;4308;51.294;6.590;2023-12-20T14:29:20;17.20;;;6.30;;
8540;SDS011;4308;51.294;6.590;2023-12-20T14:31:50;14.33;;;6.43;;
8540;SDS011;4308;51.294;6.590;2023-12-20T14:34:17;17.40;;;6.80;;
8540;SDS011;4308;51.294;6.590;2023-12-20T14:36:45;14.73;;;6.37;;
8540;SDS011;4308;51.294;6.590;2023-12-20T14:39:12;13.00;;;6.50;;
8540;SDS011;4308;51.294;6.590;2023-12-20T14:41:40;17.03;;;6.87;;
8540;SDS011;4308;51.294;6.590;2023-12-20T14:44:08;18.40;;;6.50;;
8540;SDS011;4308;51.294;6.590;2023-12-20T14:46:36;18.17;;;6.10;;
8540;SDS011;4308;51.294;6.590;2023-12-20T14:49:07;15.77;;;7.00;;
8540;SDS011;4308;51.294;6.590;2023-12-20T14:51:34;15.00;;;6.93;;
8540;SDS011;4308;51.294;6.590;2023-12-20T14:54:02;12.27;;;6.03;;
8540;SDS011;4308;51.294;6.590;2023-12-20T14:56:29;17.50;;;5.93;;
8540;SDS011;4308;51.294;6.590;2023-12-20T14:58:56;18.50;;;6.77;;
8540;SDS011;4308;51.294;6.590;2023-12-20T15:01:28;15.70;;;7.40;;
8540;SDS011;4308;51.294;6.590;2023-12-20T15:03:55;17.10;;;6.20;;
8540;SDS011;4308;51.294;6.590;2023-12-20T15:06:23;12.60;;;6.37;;
8540;SDS011;4308;51.294;6.590;2023-12-20T15:08:50;20.67;;;7.27;;
8540;SDS011;4308;51.294;6.590;2023-12-20T15:11:18;19.03;;;8.27;;